createdAt,value
2019-02-04T00:02:05.020Z,99830.78
2019-02-04T00:05:10.916Z,99823.70
2019-02-04T00:08:16.774Z,99829.64
2019-02-04T00:11:22.935Z,99826.81
2019-02-04T00:14:28.717Z,99827.35
2019-02-04T00:17:34.610Z,99829.41
2019-02-04T00:20:40.437Z,99828.67
2019-02-04T00:23:46.206Z,99828.88
2019-02-04T00:26:52.085Z,99829.91
2019-02-04T00:29:57.876Z,99817.11
2019-02-04T00:33:04.263Z,99827.70
2019-02-04T00:36:10.114Z,99828.53
2019-02-04T00:39:15.867Z,99830.94
2019-02-04T00:42:21.845Z,99832.17
2019-02-04T00:45:27.834Z,99831.97
2019-02-04T00:48:33.757Z,99835.05
2019-02-04T00:51:39.527Z,99830.94
2019-02-04T00:54:45.298Z,99844.59
2019-02-04T00:57:51.094Z,99840.39
2019-02-04T01:00:57.117Z,99836.20
2019-02-04T01:04:03.408Z,99837.44
2019-02-04T01:07:09.356Z,99839.52
2019-02-04T01:10:17.390Z,99843.95
2019-02-04T01:13:23.284Z,99849.13
2019-02-04T01:16:29.137Z,99841.97
2019-02-04T01:19:34.982Z,99841.63
2019-02-04T01:22:41.109Z,99830.79
2019-02-04T01:25:47.278Z,99831.73
2019-02-04T01:28:53.191Z,99832.17
2019-02-04T01:31:59.128Z,99834.22
2019-02-04T01:35:05.262Z,99842.61
2019-02-04T01:38:11.069Z,99851.48
2019-02-04T01:41:16.828Z,99840.21
2019-02-04T01:44:22.644Z,99842.80
2019-02-04T01:47:28.434Z,99846.91
2019-02-04T01:50:34.211Z,99851.38
2019-02-04T01:53:39.974Z,99856.61
2019-02-04T01:56:45.846Z,99860.41
2019-02-04T01:59:51.658Z,99852.21
2019-02-04T02:02:57.551Z,99849.64
2019-02-04T02:06:03.487Z,99855.20
2019-02-04T02:09:20.570Z,99848.52
2019-02-04T02:12:26.366Z,99861.91
2019-02-04T02:15:32.248Z,99860.70
2019-02-04T02:18:38.012Z,99863.41
2019-02-04T02:21:43.817Z,99869.27
2019-02-04T02:24:49.631Z,99871.21
2019-02-04T02:27:55.528Z,99867.42
2019-02-04T02:31:02.789Z,99870.34
2019-02-04T02:34:08.666Z,99871.98
2019-02-04T02:37:14.527Z,99872.52
2019-02-04T02:40:23.022Z,99869.62
2019-02-04T02:43:28.801Z,99874.25
2019-02-04T02:46:34.607Z,99874.95
2019-02-04T02:49:40.419Z,99873.83
2019-02-04T02:52:46.558Z,99877.07
2019-02-04T02:55:52.458Z,99881.46
2019-02-04T02:58:58.230Z,99877.50
2019-02-04T03:02:04.500Z,99889.86
2019-02-04T03:05:11.760Z,99894.92
2019-02-04T03:08:17.636Z,99903.58
2019-02-04T03:11:23.388Z,99907.73
2019-02-04T03:14:29.175Z,99904.42
2019-02-04T03:17:34.978Z,99901.03
2019-02-04T03:20:40.758Z,99905.98
2019-02-04T03:23:47.042Z,99906.09
2019-02-04T03:26:52.811Z,99898.52
2019-02-04T03:29:58.666Z,99899.72
2019-02-04T03:33:05.439Z,99906.75
2019-02-04T03:36:11.295Z,99905.70
2019-02-04T03:39:17.131Z,99914.67
2019-02-04T03:42:22.919Z,99916.30
2019-02-04T03:45:29.255Z,99925.45
2019-02-04T03:48:35.019Z,99927.98
2019-02-04T03:51:41.049Z,99929.62
2019-02-04T03:54:46.874Z,99935.83
2019-02-04T03:57:52.743Z,99944.11
2019-02-04T04:00:58.615Z,99939.06
2019-02-04T04:04:04.488Z,99942.72
2019-02-04T04:07:11.673Z,99952.21
2019-02-04T04:10:17.808Z,99955.13
2019-02-04T04:13:23.604Z,99953.55
2019-02-04T04:16:29.382Z,99952.70
2019-02-04T04:19:35.180Z,99955.98
2019-02-04T04:22:41.428Z,99957.47
2019-02-04T04:25:47.197Z,99952.64
2019-02-04T04:28:52.974Z,99958.59
2019-02-04T04:31:58.727Z,99951.19
2019-02-04T04:35:04.869Z,99953.11
2019-02-04T04:38:10.916Z,99945.52
2019-02-04T04:41:16.859Z,99946.14
2019-02-04T04:44:22.672Z,99959.48
2019-02-04T04:47:28.478Z,99952.06
2019-02-04T04:50:34.345Z,99949.36
2019-02-04T04:53:40.108Z,99946.28
2019-02-04T04:56:45.869Z,99953.85
2019-02-04T04:59:52.010Z,99963.85
2019-02-04T05:02:57.921Z,99970.42
2019-02-04T05:06:03.831Z,99977.49
2019-02-04T05:09:09.706Z,99973.84
2019-02-04T05:12:15.467Z,99981.89
2019-02-04T05:15:23.443Z,99991.57
2019-02-04T05:18:37.850Z,99989.20
2019-02-04T05:21:36.768Z,99989.05
2019-02-04T05:24:42.503Z,99987.27
2019-02-04T05:27:48.385Z,99993.50
2019-02-04T05:30:54.158Z,99992.66
2019-02-04T05:33:59.964Z,100002.09
2019-02-04T05:37:05.731Z,100002.98
2019-02-04T05:40:13.195Z,100015.44
2019-02-04T05:43:19.009Z,100009.27
2019-02-04T05:46:24.821Z,100018.12
2019-02-04T05:49:30.592Z,100018.31
2019-02-04T05:52:36.737Z,100018.34
2019-02-04T05:55:42.577Z,100030.53
2019-02-04T05:58:48.443Z,100044.13
2019-02-04T06:01:54.254Z,100045.00
2019-02-04T06:05:00.341Z,100045.72
2019-02-04T06:08:06.265Z,100053.06
2019-02-04T06:11:12.160Z,100056.45
2019-02-04T06:14:18.286Z,100056.50
2019-02-04T06:17:24.034Z,100059.44
2019-02-04T06:20:30.198Z,100057.28
2019-02-04T06:23:35.992Z,100054.83
2019-02-04T06:26:41.759Z,100059.88
2019-02-04T06:29:47.549Z,100062.12
2019-02-04T06:32:53.330Z,100064.32
2019-02-04T06:35:59.176Z,100070.34
2019-02-04T06:39:09.281Z,100070.85
2019-02-04T06:42:15.181Z,100072.95
2019-02-04T06:45:21.070Z,100077.98
2019-02-04T06:48:26.967Z,100081.22
2019-02-04T06:51:32.756Z,100077.94
2019-02-04T06:54:38.526Z,100090.95
2019-02-04T06:57:44.292Z,100089.62
2019-02-04T07:00:50.185Z,100094.44
2019-02-04T07:03:56.023Z,100101.23
2019-02-04T07:07:02.202Z,100098.42
2019-02-04T07:10:10.070Z,100089.20
2019-02-04T07:13:15.850Z,100086.31
2019-02-04T07:16:21.683Z,100094.42
2019-02-04T07:19:27.426Z,100101.03
2019-02-04T07:22:33.222Z,100103.77
2019-02-04T07:25:39.202Z,100098.97
2019-02-04T07:28:44.976Z,100107.70
2019-02-04T07:31:50.854Z,100108.41
2019-02-04T07:34:56.684Z,100109.42
2019-02-04T07:38:02.911Z,100103.80
2019-02-04T07:41:08.811Z,100112.31
2019-02-04T07:44:14.589Z,100112.75
2019-02-04T07:47:20.643Z,100119.17
2019-02-04T07:50:26.685Z,100117.52
2019-02-04T07:53:32.569Z,100121.52
2019-02-04T07:56:39.895Z,100118.44
2019-02-04T07:59:45.738Z,100126.83
2019-02-04T08:02:52.151Z,100133.55
2019-02-04T08:06:00.292Z,100125.72
2019-02-04T08:09:09.571Z,100128.42
2019-02-04T08:12:15.560Z,100133.19
2019-02-04T08:15:24.141Z,100138.05
2019-02-04T08:18:30.015Z,100136.73
2019-02-04T08:21:43.427Z,100136.40
2019-02-04T08:24:49.238Z,100132.16
2019-02-04T08:27:55.252Z,100139.69
2019-02-04T08:31:02.113Z,100131.30
2019-02-04T08:34:08.237Z,100133.14
2019-02-04T08:37:18.423Z,100128.85
2019-02-04T08:40:24.465Z,100127.68
2019-02-04T08:43:30.554Z,100126.06
2019-02-04T08:46:36.336Z,100126.06
2019-02-04T08:49:42.158Z,100121.44
2019-02-04T08:52:48.451Z,100124.16
2019-02-04T08:55:54.754Z,100123.45
2019-02-04T08:59:00.628Z,100127.31
2019-02-04T09:02:06.636Z,100114.27
2019-02-04T09:05:14.165Z,100114.27
2019-02-04T09:08:20.030Z,100107.55
2019-02-04T09:11:26.042Z,100118.61
2019-02-04T09:14:31.842Z,100122.77
2019-02-04T09:17:38.302Z,100122.77
2019-02-04T09:20:44.267Z,100119.05
2019-02-04T09:23:50.540Z,100132.27
2019-02-04T09:26:56.338Z,100129.28
2019-02-04T09:30:02.249Z,100112.09
2019-02-04T09:33:08.322Z,100113.52
2019-02-04T09:36:14.200Z,100113.70
2019-02-04T09:39:20.024Z,100105.00
2019-02-04T09:42:25.770Z,100100.36
2019-02-04T09:45:31.772Z,100101.41
2019-02-04T09:48:37.537Z,100105.64
2019-02-04T09:51:43.551Z,100102.09
2019-02-04T09:54:50.450Z,100097.56
2019-02-04T09:57:56.227Z,100099.16
2019-02-04T10:01:04.270Z,100098.63
2019-02-04T10:04:09.976Z,100091.56
2019-02-04T10:07:15.882Z,100090.84
2019-02-04T10:10:24.003Z,100091.63
2019-02-04T10:13:29.855Z,100087.54
2019-02-04T10:16:35.795Z,100081.31
2019-02-04T10:19:41.674Z,100072.70
2019-02-04T10:22:47.642Z,100076.36
2019-02-04T10:25:54.957Z,100070.11
2019-02-04T10:29:00.749Z,100066.64
2019-02-04T10:32:06.617Z,100064.17
2019-02-04T10:35:16.771Z,100061.67
2019-02-04T10:38:20.517Z,100059.52
2019-02-04T10:41:26.842Z,100060.14
2019-02-04T10:44:32.674Z,100052.14
2019-02-04T10:47:38.675Z,100048.78
2019-02-04T10:50:46.670Z,100048.58
2019-02-04T10:53:52.262Z,100045.63
2019-02-04T10:56:58.068Z,100045.27
2019-02-04T11:00:05.595Z,100038.75
2019-02-04T11:03:12.163Z,100033.68
2019-02-04T11:06:18.083Z,100027.41
2019-02-04T11:09:24.296Z,100034.09
2019-02-04T11:12:30.151Z,100026.58
2019-02-04T11:15:36.040Z,100025.47
2019-02-04T11:18:41.871Z,100025.20
2019-02-04T11:21:47.781Z,100021.92
2019-02-04T11:24:53.815Z,100021.95
2019-02-04T11:27:59.687Z,100025.83
2019-02-04T11:31:09.079Z,100025.41
2019-02-04T11:34:15.039Z,100023.09
2019-02-04T11:37:20.843Z,100009.87
2019-02-04T11:40:32.659Z,100010.34
2019-02-04T11:43:38.483Z,100012.21
2019-02-04T11:46:44.347Z,100011.43
2019-02-04T11:49:50.210Z,100008.95
2019-02-04T11:52:56.473Z,100010.44
2019-02-04T11:56:02.386Z,100000.11
2019-02-04T11:59:08.293Z,100002.48
2019-02-04T12:02:14.271Z,99996.84
2019-02-04T12:05:21.355Z,100002.22
2019-02-04T12:08:27.280Z,99999.02
2019-02-04T12:11:33.063Z,99996.91
2019-02-04T12:14:38.871Z,99990.53
2019-02-04T12:17:44.828Z,99986.38
2019-02-04T12:20:50.658Z,99986.49
2019-02-04T12:23:56.690Z,99984.19
2019-02-04T12:27:02.586Z,99988.47
2019-02-04T12:30:12.328Z,99988.47
2019-02-04T12:33:18.113Z,99992.38
2019-02-04T12:36:24.024Z,99990.84
2019-02-04T12:39:29.798Z,99990.67
2019-02-04T12:42:35.693Z,99978.42
2019-02-04T12:45:42.734Z,99983.70
2019-02-04T12:48:48.536Z,99987.43
2019-02-04T12:51:54.495Z,99985.23
2019-02-04T12:55:00.450Z,99983.61
2019-02-04T12:58:07.218Z,99984.68
2019-02-04T13:01:13.088Z,99980.91
2019-02-04T13:04:18.855Z,99981.31
2019-02-04T13:07:24.613Z,99980.17
2019-02-04T13:10:30.577Z,99976.06
2019-02-04T13:13:36.696Z,99971.69
2019-02-04T13:16:42.838Z,99970.09
2019-02-04T13:19:48.633Z,99966.27
2019-02-04T13:22:54.634Z,99958.91
2019-02-04T13:26:00.530Z,99959.12
2019-02-04T13:29:06.409Z,99959.46
2019-02-04T13:32:12.226Z,99956.02
2019-02-04T13:35:18.816Z,99955.41
2019-02-04T13:38:24.712Z,99960.39
2019-02-04T13:41:30.614Z,99960.39
2019-02-04T13:44:36.660Z,99962.78
2019-02-04T13:47:43.023Z,99959.34
2019-02-04T13:50:48.824Z,99960.09
2019-02-04T13:53:57.106Z,99972.05
2019-02-04T13:57:03.746Z,99973.47
2019-02-04T14:00:12.869Z,99983.05
2019-02-04T14:03:18.771Z,99971.91
2019-02-04T14:06:24.532Z,99965.45
2019-02-04T14:09:30.305Z,99973.50
2019-02-04T14:12:36.201Z,99972.13
2019-02-04T14:15:42.869Z,99959.41
2019-02-04T14:18:48.641Z,99967.81
2019-02-04T14:21:54.399Z,99963.34
2019-02-04T14:25:00.234Z,99962.80
2019-02-04T14:28:06.410Z,99960.23
2019-02-04T14:31:12.693Z,99960.73
2019-02-04T14:34:18.457Z,99955.38
2019-02-04T14:37:24.445Z,99953.20
2019-02-04T14:40:30.438Z,99958.00
2019-02-04T14:43:47.699Z,99957.22
2019-02-04T14:47:17.694Z,99956.11
2019-02-04T14:50:48.965Z,99954.03
2019-02-04T14:54:47.217Z,99954.03
2019-02-04T14:58:11.744Z,99949.81
2019-02-04T15:02:05.055Z,99955.41
2019-02-04T15:05:38.522Z,99955.41
2019-02-04T15:09:28.262Z,99959.31
2019-02-04T15:13:08.759Z,99959.31
2019-02-04T15:16:30.983Z,99955.71
2019-02-04T15:20:07.824Z,99946.67
2019-02-04T15:23:22.969Z,99946.67
2019-02-04T15:26:59.392Z,99956.75
2019-02-04T15:30:19.041Z,99956.75
2019-02-04T15:33:44.397Z,99954.66
2019-02-04T15:37:28.007Z,99959.77
2019-02-04T15:41:14.385Z,99971.13
2019-02-04T15:44:33.800Z,99967.69
2019-02-04T15:48:09.746Z,99967.69
2019-02-04T15:51:26.882Z,99975.58
2019-02-04T15:54:33.266Z,99985.45
2019-02-04T15:57:39.069Z,99993.81
2019-02-04T16:00:44.853Z,99993.98
2019-02-04T16:03:50.659Z,99997.09
2019-02-04T16:06:56.479Z,100005.47
2019-02-04T16:10:02.286Z,100005.47
2019-02-04T16:13:08.202Z,100006.70
2019-02-04T16:16:14.049Z,100010.02
2019-02-04T16:19:19.897Z,100003.28
2019-02-04T16:22:25.888Z,100006.22
2019-02-04T16:25:32.296Z,100012.64
2019-02-04T16:28:38.219Z,100012.14
2019-02-04T16:31:44.381Z,100017.55
2019-02-04T16:34:50.279Z,100023.14
2019-02-04T16:37:56.267Z,100027.75
2019-02-04T16:41:02.095Z,100031.47
2019-02-04T16:44:09.514Z,100044.09
2019-02-04T16:47:15.316Z,100042.23
2019-02-04T16:50:26.141Z,100037.72
2019-02-04T16:53:31.977Z,100043.30
2019-02-04T16:56:37.765Z,100054.37
2019-02-04T16:59:43.689Z,100055.80
2019-02-04T17:02:49.571Z,100060.84
2019-02-04T17:05:55.545Z,100065.13
2019-02-04T17:09:02.261Z,100066.23
2019-02-04T17:12:09.953Z,100070.91
2019-02-04T17:15:15.961Z,100071.91
2019-02-04T17:18:23.229Z,100076.31
2019-02-04T17:21:29.258Z,100078.71
2019-02-04T17:24:35.065Z,100081.02
2019-02-04T17:27:41.060Z,100075.66
2019-02-04T17:30:46.838Z,100078.11
2019-02-04T17:33:52.731Z,100073.85
2019-02-04T17:36:58.580Z,100079.87
2019-02-04T17:40:05.533Z,100076.31
2019-02-04T17:43:11.530Z,100077.73
2019-02-04T17:46:17.435Z,100080.80
2019-02-04T17:49:23.253Z,100082.28
2019-02-04T17:52:29.012Z,100085.82
2019-02-04T17:55:35.061Z,100078.79
2019-02-04T17:58:40.977Z,100075.85
2019-02-04T18:01:47.020Z,100083.67
2019-02-04T18:04:52.854Z,100079.45
2019-02-04T18:07:58.881Z,100078.77
2019-02-04T18:11:04.969Z,100075.94
2019-02-04T18:14:11.758Z,100073.80
2019-02-04T18:17:17.560Z,100076.34
2019-02-04T18:20:23.569Z,100072.13
2019-02-04T18:23:29.405Z,100075.00
2019-02-04T18:26:35.187Z,100071.30
2019-02-04T18:29:40.977Z,100082.91
2019-02-04T18:32:47.270Z,100077.03
2019-02-04T18:35:53.072Z,100074.20
2019-02-04T18:38:58.889Z,100078.66
2019-02-04T18:42:04.872Z,100077.00
2019-02-04T18:45:17.278Z,100072.96
2019-02-04T18:48:23.060Z,100078.87
2019-02-04T18:51:28.927Z,100079.48
2019-02-04T18:54:36.459Z,100079.48
2019-02-04T18:57:43.935Z,100079.94
2019-02-04T19:00:49.713Z,100085.05
2019-02-04T19:03:55.498Z,100089.30
2019-02-04T19:07:01.330Z,100089.02
2019-02-04T19:10:08.154Z,100101.27
2019-02-04T19:13:13.962Z,100102.38
2019-02-04T19:16:20.042Z,100107.82
2019-02-04T19:19:26.054Z,100114.46
2019-02-04T19:22:31.852Z,100129.20
2019-02-04T19:25:40.647Z,100124.06
2019-02-04T19:28:47.686Z,100123.93
2019-02-04T19:31:53.543Z,100122.48
2019-02-04T19:34:59.427Z,100128.55
2019-02-04T19:38:07.310Z,100129.35
2019-02-04T19:41:13.313Z,100136.22
2019-02-04T19:44:19.106Z,100137.19
2019-02-04T19:47:24.936Z,100139.86
2019-02-04T19:50:33.131Z,100145.94
2019-02-04T19:53:39.006Z,100146.30
2019-02-04T19:56:44.912Z,100145.51
2019-02-04T19:59:50.815Z,100147.56
2019-02-04T20:02:56.803Z,100148.29
2019-02-04T20:06:02.797Z,100158.48
2019-02-04T20:09:11.143Z,100148.95
2019-02-04T20:12:17.192Z,100150.13
2019-02-04T20:15:28.811Z,100149.13
2019-02-04T20:18:34.632Z,100141.12
2019-02-04T20:21:45.559Z,100145.67
2019-02-04T20:24:49.464Z,100138.61
2019-02-04T20:27:55.277Z,100137.42
2019-02-04T20:31:01.473Z,100136.01
2019-02-04T20:34:07.383Z,100129.71
2019-02-04T20:37:13.172Z,100139.20
2019-02-04T20:40:20.489Z,100143.39
2019-02-04T20:43:26.487Z,100140.54
2019-02-04T20:46:32.275Z,100145.76
2019-02-04T20:49:38.152Z,100148.34
2019-02-04T20:52:43.913Z,100149.92
2019-02-04T20:55:49.715Z,100142.77
2019-02-04T20:58:55.627Z,100145.64
2019-02-04T21:02:01.907Z,100136.09
2019-02-04T21:05:08.212Z,100131.73
2019-02-04T21:08:14.430Z,100135.20
2019-02-04T21:11:20.505Z,100132.26
2019-02-04T21:14:26.633Z,100127.52
2019-02-04T21:17:32.625Z,100129.64
2019-02-04T21:20:38.532Z,100124.30
2019-02-04T21:23:44.455Z,100133.53
2019-02-04T21:26:50.228Z,100131.20
2019-02-04T21:29:56.043Z,100136.63
2019-02-04T21:33:02.395Z,100132.17
2019-02-04T21:36:08.269Z,100138.47
2019-02-04T21:39:14.529Z,100141.98
2019-02-04T21:42:20.632Z,100151.50
2019-02-04T21:45:26.543Z,100158.70
2019-02-04T21:48:32.300Z,100154.12
2019-02-04T21:51:38.073Z,100160.13
2019-02-04T21:54:44.053Z,100160.61
2019-02-04T21:57:50.022Z,100162.70
2019-02-04T22:00:55.840Z,100158.72
2019-02-04T22:04:01.782Z,100159.58
2019-02-04T22:07:09.705Z,100158.02
2019-02-04T22:10:18.141Z,100155.42
2019-02-04T22:13:24.047Z,100157.03
2019-02-04T22:16:30.419Z,100156.06
2019-02-04T22:19:36.671Z,100156.84
2019-02-04T22:22:42.468Z,100162.74
2019-02-04T22:25:48.265Z,100158.81
2019-02-04T22:28:54.048Z,100158.87
2019-02-04T22:31:59.878Z,100164.15
2019-02-04T22:35:06.514Z,100158.34
2019-02-04T22:38:12.299Z,100158.23
2019-02-04T22:41:18.070Z,100153.05
2019-02-04T22:44:24.250Z,100155.20
2019-02-04T22:47:30.165Z,100165.30
2019-02-04T22:50:36.135Z,100167.33
2019-02-04T22:53:41.996Z,100158.83
2019-02-04T22:56:47.781Z,100161.45
2019-02-04T22:59:53.649Z,100157.88
2019-02-04T23:02:59.551Z,100162.83
2019-02-04T23:06:05.524Z,100157.11
2019-02-04T23:09:11.388Z,100165.50
2019-02-04T23:12:17.982Z,100160.55
2019-02-04T23:15:24.063Z,100152.45
2019-02-04T23:18:29.952Z,100148.23
2019-02-04T23:21:35.925Z,100152.92
2019-02-04T23:24:41.692Z,100150.89
2019-02-04T23:27:47.475Z,100148.41
2019-02-04T23:30:53.346Z,100151.80
2019-02-04T23:33:59.098Z,100153.28
2019-02-04T23:37:05.029Z,100146.45
2019-02-04T23:40:11.513Z,100142.59
2019-02-04T23:43:17.293Z,100145.56
2019-02-04T23:46:23.179Z,100138.59
2019-02-04T23:49:28.968Z,100142.80
2019-02-04T23:52:34.747Z,100143.88
2019-02-04T23:55:40.507Z,100146.50
2019-02-04T23:58:46.384Z,100146.52
